Time;durP1;ratioP1;P1;durP2;ratioP2;P2;SDS_P1;SDS_P2;PMS_P1;PMS_P2;Temp;Humidity;BMP_temperature;BMP_pressure;BME280_temperature;BME280_humidity;BME280_pressure;Samples;Min_cycle;Max_cycle;Signal;HPM_P1;HPM_P2
2023/08/03 00:00:22;;;;;;;9.52;2.95;;;;;;;;;;5060104;28;20124;-59
2023/08/03 00:02:48;;;;;;;7.43;2.83;;;;;;;;;;5052931;28;20041;-59
2023/08/03 00:05:17;;;;;;;8.70;3.45;;;;;;;;;;5061579;28;20052;-59
2023/08/03 00:07:46;;;;;;;10.85;3.25;;;;;;;;;;5057932;28;20036;-59
2023/08/03 00:10:13;;;;;;;7.30;2.88;;;;;;;;;;5059785;28;20028;-59
2023/08/03 00:12:39;;;;;;;5.85;2.53;;;;;;;;;;5063514;28;20519;-59
2023/08/03 00:15:06;;;;;;;11.45;3.03;;;;;;;;;;5058286;28;20088;-59
2023/08/03 00:17:32;;;;;;;12.35;2.53;;;;;;;;;;5062562;28;20037;-59
2023/08/03 00:20:00;;;;;;;7.93;2.72;;;;;;;;;;5057336;28;20055;-59
2023/08/03 00:22:27;;;;;;;10.73;3.33;;;;;;;;;;5057671;28;20155;-59
2023/08/03 00:24:53;;;;;;;8.48;2.67;;;;;;;;;;5058246;28;20043;-59
2023/08/03 00:27:19;;;;;;;9.60;2.83;;;;;;;;;;5064690;28;20075;-59
2023/08/03 00:29:45;;;;;;;8.23;3.70;;;;;;;;;;5064264;28;20040;-59
2023/08/03 00:32:12;;;;;;;7.53;2.92;;;;;;;;;;5059612;28;20079;-59
2023/08/03 00:34:38;;;;;;;8.57;3.20;;;;;;;;;;5056138;28;20396;-59
2023/08/03 00:37:04;;;;;;;9.85;2.60;;;;;;;;;;5054806;28;20045;-59
2023/08/03 00:39:30;;;;;;;11.13;2.90;;;;;;;;;;5056740;28;20386;-59
2023/08/03 00:41:57;;;;;;;6.43;2.30;;;;;;;;;;5066137;28;20388;-59
2023/08/03 00:44:23;;;;;;;7.72;2.63;;;;;;;;;;5057209;28;20048;-59
2023/08/03 00:46:50;;;;;;;10.27;2.40;;;;;;;;;;5058887;28;20057;-59
2023/08/03 00:49:16;;;;;;;5.40;2.35;;;;;;;;;;5062304;28;20056;-59
2023/08/03 00:51:42;;;;;;;6.78;2.22;;;;;;;;;;5064223;28;20111;-59
2023/08/03 00:54:08;;;;;;;7.35;3.15;;;;;;;;;;5066983;28;20125;-59
2023/08/03 00:56:35;;;;;;;9.93;2.85;;;;;;;;;;5057344;28;20518;-59
2023/08/03 00:59:01;;;;;;;6.90;1.95;;;;;;;;;;5068262;28;20075;-59
2023/08/03 01:01:28;;;;;;;11.43;3.13;;;;;;;;;;5070452;28;20107;-59
2023/08/03 01:03:54;;;;;;;11.45;2.42;;;;;;;;;;5066425;28;20120;-59
2023/08/03 01:06:21;;;;;;;9.70;3.75;;;;;;;;;;5076798;28;20045;-59
2023/08/03 01:08:47;;;;;;;9.85;2.50;;;;;;;;;;5068670;28;20415;-59
2023/08/03 01:11:13;;;;;;;7.80;2.78;;;;;;;;;;5067770;28;20101;-60
2023/08/03 01:13:40;;;;;;;7.90;2.95;;;;;;;;;;5059996;28;20409;-59
2023/08/03 01:16:09;;;;;;;6.70;2.67;;;;;;;;;;5064041;28;20551;-59
2023/08/03 01:18:36;;;;;;;5.78;2.33;;;;;;;;;;5059551;28;20044;-59
2023/08/03 01:21:03;;;;;;;5.82;2.17;;;;;;;;;;5054572;28;20057;-59
2023/08/03 01:23:29;;;;;;;6.95;2.58;;;;;;;;;;5065327;28;20044;-59
2023/08/03 01:25:55;;;;;;;9.13;2.30;;;;;;;;;;5079020;28;20040;-59
2023/08/03 01:28:22;;;;;;;5.20;2.08;;;;;;;;;;5057438;28;20341;-59
2023/08/03 01:30:48;;;;;;;6.10;2.17;;;;;;;;;;5070561;28;20070;-59
2023/08/03 01:33:14;;;;;;;4.03;1.95;;;;;;;;;;5066884;28;20044;-59
2023/08/03 01:35:40;;;;;;;4.82;2.05;;;;;;;;;;5063685;28;20051;-59
2023/08/03 01:38:07;;;;;;;7.85;2.15;;;;;;;;;;5068281;28;20127;-59
2023/08/03 01:40:33;;;;;;;9.52;2.53;;;;;;;;;;5061134;28;20804;-59
2023/08/03 01:42:59;;;;;;;6.60;2.28;;;;;;;;;;5067366;28;20044;-59
2023/08/03 01:45:25;;;;;;;6.45;2.25;;;;;;;;;;5059073;28;20132;-59
2023/08/03 01:47:52;;;;;;;9.45;2.70;;;;;;;;;;5064791;28;20062;-59
2023/08/03 01:50:19;;;;;;;4.68;2.10;;;;;;;;;;5069511;28;20044;-59
2023/08/03 01:52:48;;;;;;;6.20;2.20;;;;;;;;;;5070889;28;20048;-59
2023/08/03 01:55:14;;;;;;;7.28;2.35;;;;;;;;;;5071271;28;20048;-59
2023/08/03 01:57:40;;;;;;;6.82;2.47;;;;;;;;;;5073636;28;20040;-59
2023/08/03 02:00:07;;;;;;;8.90;2.40;;;;;;;;;;5070689;28;20040;-59
2023/08/03 02:02:33;;;;;;;7.95;2.40;;;;;;;;;;5070196;28;20376;-59
2023/08/03 02:04:59;;;;;;;7.63;2.70;;;;;;;;;;5071011;28;20052;-59
2023/08/03 02:07:45;;;;;;;8.90;2.42;;;;;;;;;;5073083;28;20399;-59
2023/08/03 02:10:11;;;;;;;7.22;2.33;;;;;;;;;;5055119;28;20059;-59
2023/08/03 02:12:38;;;;;;;7.03;2.28;;;;;;;;;;5085077;28;20076;-59
2023/08/03 02:15:07;;;;;;;7.28;2.70;;;;;;;;;;5059466;28;20400;-59
2023/08/03 02:17:34;;;;;;;3.67;2.00;;;;;;;;;;5058551;28;20577;-59
2023/08/03 02:20:00;;;;;;;6.60;2.60;;;;;;;;;;5053951;28;20204;-59
2023/08/03 02:22:26;;;;;;;6.97;2.58;;;;;;;;;;5075547;28;20041;-59
2023/08/03 02:24:52;;;;;;;5.78;2.30;;;;;;;;;;5057389;28;20048;-59
2023/08/03 02:27:19;;;;;;;6.28;2.88;;;;;;;;;;5070287;28;20044;-59
2023/08/03 02:29:45;;;;;;;7.30;2.70;;;;;;;;;;5058396;28;20047;-59
2023/08/03 02:32:11;;;;;;;7.82;2.90;;;;;;;;;;5064722;28;20056;-59
2023/08/03 02:34:37;;;;;;;7.97;2.90;;;;;;;;;;5057480;28;20404;-59
2023/08/03 02:37:03;;;;;;;5.50;2.85;;;;;;;;;;5059750;28;20040;-59
2023/08/03 02:39:29;;;;;;;6.22;2.65;;;;;;;;;;5059286;28;20112;-59
2023/08/03 02:41:56;;;;;;;5.28;2.70;;;;;;;;;;5059649;28;20041;-59
2023/08/03 02:44:22;;;;;;;5.63;2.92;;;;;;;;;;5059039;28;20084;-59
2023/08/03 02:46:48;;;;;;;4.30;2.58;;;;;;;;;;5060472;28;20044;-59
2023/08/03 02:49:14;;;;;;;6.35;2.60;;;;;;;;;;5059997;28;20491;-59
2023/08/03 02:51:43;;;;;;;6.22;2.63;;;;;;;;;;5058397;28;20032;-59
2023/08/03 02:54:09;;;;;;;9.20;2.70;;;;;;;;;;5057018;28;20083;-59
2023/08/03 02:56:35;;;;;;;5.68;2.45;;;;;;;;;;5060990;28;20053;-59
2023/08/03 02:59:01;;;;;;;4.43;2.35;;;;;;;;;;5056471;28;20477;-59
2023/08/03 03:01:27;;;;;;;6.25;2.97;;;;;;;;;;5059525;28;20393;-59
2023/08/03 03:03:53;;;;;;;5.60;2.63;;;;;;;;;;5065101;28;20111;-59
2023/08/03 03:06:20;;;;;;;5.45;2.63;;;;;;;;;;5071521;28;20051;-59
2023/08/03 03:08:46;;;;;;;7.97;3.00;;;;;;;;;;5056780;28;20177;-59
2023/08/03 03:11:12;;;;;;;6.28;2.83;;;;;;;;;;5057499;28;20036;-59
2023/08/03 03:13:38;;;;;;;6.90;2.97;;;;;;;;;;5057272;28;20041;-59
2023/08/03 03:16:04;;;;;;;4.88;2.92;;;;;;;;;;5057191;28;20063;-59
2023/08/03 03:18:30;;;;;;;5.43;2.80;;;;;;;;;;5057949;28;20037;-59
2023/08/03 03:20:57;;;;;;;5.85;2.70;;;;;;;;;;5058389;28;20158;-59
2023/08/03 03:23:23;;;;;;;10.02;3.10;;;;;;;;;;5056507;28;20068;-59
2023/08/03 03:25:49;;;;;;;6.53;3.03;;;;;;;;;;5069486;28;20113;-59
2023/08/03 03:28:15;;;;;;;8.93;3.85;;;;;;;;;;5067719;28;20064;-59
2023/08/03 03:30:41;;;;;;;4.53;2.85;;;;;;;;;;5068988;28;20105;-59
2023/08/03 03:33:07;;;;;;;5.78;3.70;;;;;;;;;;5071479;28;20052;-59
2023/08/03 03:35:34;;;;;;;7.57;3.83;;;;;;;;;;5077731;28;20063;-59
2023/08/03 03:38:00;;;;;;;7.82;3.70;;;;;;;;;;5060036;28;20051;-59
2023/08/03 03:40:27;;;;;;;8.73;3.80;;;;;;;;;;5061951;28;20045;-59
2023/08/03 03:42:54;;;;;;;7.78;4.30;;;;;;;;;;5056071;28;20052;-59
2023/08/03 03:45:20;;;;;;;13.57;5.53;;;;;;;;;;5064690;28;20032;-59
2023/08/03 03:47:46;;;;;;;12.98;5.82;;;;;;;;;;5068942;28;20056;-59
2023/08/03 03:50:12;;;;;;;11.70;6.50;;;;;;;;;;5070672;28;20037;-59
2023/08/03 03:52:39;;;;;;;13.00;7.38;;;;;;;;;;5062471;28;20076;-60
2023/08/03 03:55:05;;;;;;;12.82;6.60;;;;;;;;;;5057623;28;20049;-59
2023/08/03 03:57:32;;;;;;;14.05;7.68;;;;;;;;;;5054272;28;20144;-59
2023/08/03 03:59:58;;;;;;;14.52;7.85;;;;;;;;;;5059747;28;20128;-59
2023/08/03 04:02:24;;;;;;;17.65;9.00;;;;;;;;;;5064064;28;20058;-59
2023/08/03 04:04:50;;;;;;;13.50;7.55;;;;;;;;;;5059588;28;20040;-59
2023/08/03 04:07:16;;;;;;;17.52;8.95;;;;;;;;;;5055914;28;20028;-59
2023/08/03 04:09:43;;;;;;;19.00;7.70;;;;;;;;;;5055490;28;20043;-59
2023/08/03 04:12:09;;;;;;;22.77;7.88;;;;;;;;;;5058484;28;20037;-59
2023/08/03 04:14:35;;;;;;;15.80;7.63;;;;;;;;;;5056800;28;20436;-59
2023/08/03 04:17:01;;;;;;;17.35;8.80;;;;;;;;;;5064868;28;20120;-59
2023/08/03 04:19:27;;;;;;;19.30;8.57;;;;;;;;;;5062426;28;20067;-59
2023/08/03 04:21:54;;;;;;;18.45;7.40;;;;;;;;;;5059878;28;20412;-59
2023/08/03 04:24:20;;;;;;;17.98;7.57;;;;;;;;;;5065433;28;20059;-59
2023/08/03 04:26:47;;;;;;;23.77;7.22;;;;;;;;;;5055179;28;20060;-59
2023/08/03 04:29:14;;;;;;;22.20;7.00;;;;;;;;;;5058090;28;21330;-59
2023/08/03 04:31:40;;;;;;;19.63;6.47;;;;;;;;;;5058810;28;20076;-59
2023/08/03 04:34:06;;;;;;;16.15;6.53;;;;;;;;;;5058132;28;20044;-59
2023/08/03 04:36:32;;;;;;;15.15;6.22;;;;;;;;;;5057222;28;20036;-59
2023/08/03 04:38:58;;;;;;;20.63;6.38;;;;;;;;;;5066117;28;20135;-59
2023/08/03 04:41:25;;;;;;;14.90;6.03;;;;;;;;;;5053998;28;20449;-59
2023/08/03 04:43:51;;;;;;;19.70;6.28;;;;;;;;;;5057018;28;20110;-59
2023/08/03 04:46:17;;;;;;;22.88;6.70;;;;;;;;;;5060761;28;20056;-59
2023/08/03 04:48:44;;;;;;;14.98;6.45;;;;;;;;;;5067444;28;20101;-59
2023/08/03 04:51:10;;;;;;;18.38;6.55;;;;;;;;;;5058148;28;20087;-59
2023/08/03 04:53:36;;;;;;;18.20;6.68;;;;;;;;;;5067773;28;20067;-59
2023/08/03 04:56:02;;;;;;;20.20;7.35;;;;;;;;;;5069318;28;20044;-59
2023/08/03 04:58:28;;;;;;;19.63;6.88;;;;;;;;;;5068131;28;20109;-59
2023/08/03 05:00:55;;;;;;;21.85;7.88;;;;;;;;;;5065391;28;20115;-59
2023/08/03 05:03:21;;;;;;;18.67;6.75;;;;;;;;;;5058736;28;20076;-58
2023/08/03 05:05:47;;;;;;;14.75;7.38;;;;;;;;;;5056431;28;20049;-58
2023/08/03 05:08:13;;;;;;;23.58;8.95;;;;;;;;;;5059548;28;20128;-59
2023/08/03 05:10:39;;;;;;;21.45;8.18;;;;;;;;;;5070649;28;20161;-59
2023/08/03 05:13:05;;;;;;;22.20;9.00;;;;;;;;;;5068650;28;20090;-59
2023/08/03 05:15:32;;;;;;;19.02;8.30;;;;;;;;;;5074005;28;20121;-59
2023/08/03 05:18:01;;;;;;;20.77;8.55;;;;;;;;;;5067931;28;20051;-59
2023/08/03 05:20:30;;;;;;;24.08;8.57;;;;;;;;;;5069652;28;20120;-60
2023/08/03 05:22:56;;;;;;;16.80;8.45;;;;;;;;;;5069158;28;20040;-59
2023/08/03 05:25:22;;;;;;;27.55;8.63;;;;;;;;;;5055786;28;20045;-59
2023/08/03 05:27:48;;;;;;;17.05;8.93;;;;;;;;;;5060954;28;20123;-59
2023/08/03 05:30:15;;;;;;;20.48;8.35;;;;;;;;;;5064170;28;20208;-59
2023/08/03 05:32:41;;;;;;;18.13;8.52;;;;;;;;;;5060884;28;20131;-59
2023/08/03 05:35:07;;;;;;;18.23;8.88;;;;;;;;;;5062895;28;20072;-59
2023/08/03 05:37:33;;;;;;;13.15;7.82;;;;;;;;;;5056168;28;20053;-59
2023/08/03 05:40:03;;;;;;;18.45;8.65;;;;;;;;;;5054696;28;20842;-59
2023/08/03 05:42:36;;;;;;;16.23;8.40;;;;;;;;;;5063263;28;21741;-59
2023/08/03 05:45:05;;;;;;;18.65;8.63;;;;;;;;;;5045240;28;20043;-59
2023/08/03 05:47:32;;;;;;;17.90;7.55;;;;;;;;;;5059236;28;20432;-60
2023/08/03 05:49:58;;;;;;;16.13;8.00;;;;;;;;;;5068795;28;20253;-59
2023/08/03 05:52:27;;;;;;;13.30;7.22;;;;;;;;;;5061261;28;20577;-59
2023/08/03 05:54:54;;;;;;;10.05;6.10;;;;;;;;;;5059078;28;20048;-59
2023/08/03 05:57:20;;;;;;;10.40;5.78;;;;;;;;;;5059252;28;20041;-59
2023/08/03 05:59:47;;;;;;;12.45;5.05;;;;;;;;;;5065223;28;20041;-59
2023/08/03 06:02:25;;;;;;;10.60;5.20;;;;;;;;;;5060969;28;20036;-59
2023/08/03 06:04:51;;;;;;;9.65;4.88;;;;;;;;;;5060490;28;20541;-59
2023/08/03 06:07:17;;;;;;;10.90;4.57;;;;;;;;;;5055667;28;20044;-59
2023/08/03 06:09:43;;;;;;;9.75;3.80;;;;;;;;;;5069547;28;20037;-59
2023/08/03 06:12:15;;;;;;;10.20;4.28;;;;;;;;;;5066379;28;20088;-59
2023/08/03 06:14:42;;;;;;;12.85;4.28;;;;;;;;;;5072326;28;20044;-60
2023/08/03 06:17:12;;;;;;;9.10;4.68;;;;;;;;;;5073037;28;20136;-59
2023/08/03 06:19:39;;;;;;;7.75;3.53;;;;;;;;;;5066774;28;20091;-60
2023/08/03 06:22:11;;;;;;;8.60;3.28;;;;;;;;;;5073704;28;20385;-61
2023/08/03 06:24:37;;;;;;;10.23;3.97;;;;;;;;;;5055573;28;20033;-61
2023/08/03 06:27:04;;;;;;;13.40;3.38;;;;;;;;;;5053929;28;20512;-61
2023/08/03 06:29:30;;;;;;;11.90;2.85;;;;;;;;;;5056204;28;20094;-61
2023/08/03 06:31:56;;;;;;;9.45;3.08;;;;;;;;;;5070268;28;20032;-60
2023/08/03 06:34:22;;;;;;;15.25;3.25;;;;;;;;;;5060078;28;20036;-60
2023/08/03 06:36:48;;;;;;;6.72;2.63;;;;;;;;;;5052857;28;20510;-61
2023/08/03 06:39:15;;;;;;;7.53;3.28;;;;;;;;;;5065710;28;20039;-60
2023/08/03 06:41:41;;;;;;;9.15;2.72;;;;;;;;;;5083741;28;20037;-60
2023/08/03 06:44:08;;;;;;;8.82;2.38;;;;;;;;;;5065174;28;20154;-60
2023/08/03 06:46:34;;;;;;;9.07;2.30;;;;;;;;;;5072677;28;20044;-60
2023/08/03 06:49:00;;;;;;;7.00;2.28;;;;;;;;;;5073195;28;20105;-60
2023/08/03 06:51:27;;;;;;;9.90;2.10;;;;;;;;;;5071526;28;20044;-60
2023/08/03 06:53:53;;;;;;;7.32;2.33;;;;;;;;;;5065397;28;20174;-60
2023/08/03 06:56:19;;;;;;;8.68;2.17;;;;;;;;;;5072044;28;20055;-60
2023/08/03 06:58:45;;;;;;;4.40;1.83;;;;;;;;;;5054006;28;20056;-60
2023/08/03 07:01:11;;;;;;;5.63;1.70;;;;;;;;;;5063149;28;20721;-60
2023/08/03 07:03:38;;;;;;;6.40;2.00;;;;;;;;;;5071571;28;20044;-60
2023/08/03 07:06:04;;;;;;;4.05;1.27;;;;;;;;;;5072169;28;20060;-60
2023/08/03 07:08:30;;;;;;;7.13;1.30;;;;;;;;;;5065343;28;20484;-60
2023/08/03 07:10:57;;;;;;;6.30;2.13;;;;;;;;;;5064179;28;20044;-59
2023/08/03 07:13:23;;;;;;;7.07;1.40;;;;;;;;;;5072016;28;20187;-60
2023/08/03 07:15:50;;;;;;;5.55;1.10;;;;;;;;;;5072657;28;20044;-59
2023/08/03 07:18:16;;;;;;;11.27;1.92;;;;;;;;;;5071325;28;20036;-60
2023/08/03 07:20:42;;;;;;;6.80;1.60;;;;;;;;;;5069825;28;20044;-60
2023/08/03 07:23:09;;;;;;;9.30;1.77;;;;;;;;;;5072137;28;20083;-60
2023/08/03 07:25:35;;;;;;;9.90;1.83;;;;;;;;;;5074416;28;20037;-59
2023/08/03 07:28:01;;;;;;;8.82;1.83;;;;;;;;;;5063559;28;20043;-60
2023/08/03 07:30:28;;;;;;;5.80;1.40;;;;;;;;;;5065380;28;20091;-59
2023/08/03 07:32:54;;;;;;;7.00;1.40;;;;;;;;;;5070347;28;20139;-59
2023/08/03 07:35:20;;;;;;;6.35;1.73;;;;;;;;;;5070693;28;20048;-60
2023/08/03 07:37:47;;;;;;;6.28;1.83;;;;;;;;;;5072067;28;20056;-60
2023/08/03 07:40:13;;;;;;;7.13;1.70;;;;;;;;;;5064562;28;20036;-60
2023/08/03 07:42:39;;;;;;;7.93;1.90;;;;;;;;;;5057008;28;20041;-60
2023/08/03 07:45:05;;;;;;;10.02;2.20;;;;;;;;;;5060682;28;20052;-60
2023/08/03 07:47:32;;;;;;;7.03;2.10;;;;;;;;;;5062815;28;20061;-60
2023/08/03 07:49:58;;;;;;;12.10;2.33;;;;;;;;;;5071181;28;20044;-60
2023/08/03 07:52:24;;;;;;;16.63;1.77;;;;;;;;;;5070661;28;20029;-60
2023/08/03 07:54:51;;;;;;;8.75;2.50;;;;;;;;;;5068968;28;20178;-60
2023/08/03 07:57:17;;;;;;;15.82;2.53;;;;;;;;;;5068575;28;20037;-60
2023/08/03 07:59:48;;;;;;;9.07;2.30;;;;;;;;;;5055237;28;20407;-60
2023/08/03 08:02:14;;;;;;;10.77;2.38;;;;;;;;;;5065915;28;20122;-60
2023/08/03 08:04:40;;;;;;;13.98;2.72;;;;;;;;;;5070174;28;20055;-60
2023/08/03 08:07:06;;;;;;;10.52;2.33;;;;;;;;;;5071120;28;20048;-60
2023/08/03 08:09:33;;;;;;;14.85;2.92;;;;;;;;;;5067047;28;20403;-60
2023/08/03 08:11:59;;;;;;;11.05;2.03;;;;;;;;;;5069101;28;20059;-60
2023/08/03 08:14:25;;;;;;;16.63;2.83;;;;;;;;;;5064397;28;20063;-60
2023/08/03 08:16:51;;;;;;;11.50;2.10;;;;;;;;;;5068684;28;20044;-61
2023/08/03 08:19:18;;;;;;;11.20;2.28;;;;;;;;;;5063097;28;20045;-60
2023/08/03 08:21:44;;;;;;;9.07;2.08;;;;;;;;;;5069543;28;20047;-60
2023/08/03 08:24:10;;;;;;;12.02;2.35;;;;;;;;;;5066883;28;20127;-60
2023/08/03 08:26:36;;;;;;;10.02;2.90;;;;;;;;;;5061999;28;20040;-60
2023/08/03 08:29:02;;;;;;;9.00;2.08;;;;;;;;;;5067505;28;20433;-60
2023/08/03 08:31:28;;;;;;;7.32;2.17;;;;;;;;;;5063935;28;20049;-60
2023/08/03 08:33:55;;;;;;;9.40;2.55;;;;;;;;;;5070069;28;20093;-60
2023/08/03 08:36:21;;;;;;;15.13;3.05;;;;;;;;;;5069648;28;20079;-60
2023/08/03 08:38:47;;;;;;;10.85;2.65;;;;;;;;;;5071210;28;20368;-60
2023/08/03 08:41:13;;;;;;;13.75;2.33;;;;;;;;;;5062118;28;20052;-60
2023/08/03 08:43:41;;;;;;;9.35;2.42;;;;;;;;;;5067632;28;20036;-71
2023/08/03 08:46:07;;;;;;;11.15;2.45;;;;;;;;;;5063141;28;20041;-60
2023/08/03 08:48:36;;;;;;;11.35;2.40;;;;;;;;;;5071173;28;20109;-60
2023/08/03 08:51:04;;;;;;;9.05;2.17;;;;;;;;;;5054291;28;20503;-60
2023/08/03 08:53:30;;;;;;;12.80;2.60;;;;;;;;;;5068801;28;20594;-60
2023/08/03 08:55:56;;;;;;;15.55;2.40;;;;;;;;;;5058774;28;20489;-61
2023/08/03 08:58:24;;;;;;;13.45;2.28;;;;;;;;;;5067646;28;20032;-60
2023/08/03 09:00:51;;;;;;;10.15;2.50;;;;;;;;;;5075656;28;20407;-60
2023/08/03 09:03:18;;;;;;;9.07;2.63;;;;;;;;;;5074741;28;20400;-60
2023/08/03 09:05:44;;;;;;;12.65;2.13;;;;;;;;;;5068015;28;20115;-60
2023/08/03 09:08:12;;;;;;;9.65;2.20;;;;;;;;;;5056294;28;20040;-60
2023/08/03 09:10:52;;;;;;;9.30;2.22;;;;;;;;;;5062955;28;20571;-60
2023/08/03 09:13:28;;;;;;;14.25;3.15;;;;;;;;;;5070359;28;20048;-60
2023/08/03 09:15:54;;;;;;;9.98;2.00;;;;;;;;;;5068131;28;20044;-60
2023/08/03 09:18:21;;;;;;;13.23;2.58;;;;;;;;;;5076063;28;20392;-60
2023/08/03 09:20:48;;;;;;;7.65;2.00;;;;;;;;;;5068832;28;20093;-60
2023/08/03 09:23:32;;;;;;;10.82;1.98;;;;;;;;;;5070473;28;20438;-60
2023/08/03 09:25:58;;;;;;;7.25;2.70;;;;;;;;;;5069535;28;20115;-60
2023/08/03 09:28:37;;;;;;;9.63;2.03;;;;;;;;;;5069922;28;20055;-60
2023/08/03 09:31:03;;;;;;;8.57;1.60;;;;;;;;;;5087800;28;20036;-60
2023/08/03 09:33:30;;;;;;;11.80;2.28;;;;;;;;;;5062277;28;20044;-60
2023/08/03 09:36:11;;;;;;;11.45;2.10;;;;;;;;;;5057718;28;20071;-60
2023/08/03 09:38:41;;;;;;;11.75;1.90;;;;;;;;;;5070314;28;20041;-60
2023/08/03 09:41:09;;;;;;;10.00;1.40;;;;;;;;;;5056867;28;20032;-60
2023/08/03 09:43:36;;;;;;;6.50;1.52;;;;;;;;;;5066984;28;20060;-61
2023/08/03 09:46:02;;;;;;;6.00;1.42;;;;;;;;;;5068877;28;20087;-61
2023/08/03 09:48:29;;;;;;;7.78;1.55;;;;;;;;;;5070157;28;20064;-60
2023/08/03 09:50:56;;;;;;;4.15;1.20;;;;;;;;;;5065536;28;20110;-61
2023/08/03 09:53:24;;;;;;;6.47;1.52;;;;;;;;;;5070823;28;20549;-61
2023/08/03 09:56:03;;;;;;;6.88;1.30;;;;;;;;;;5074257;28;20128;-61
2023/08/03 09:58:35;;;;;;;5.22;0.88;;;;;;;;;;5072255;28;20123;-60
2023/08/03 10:01:03;;;;;;;5.10;1.13;;;;;;;;;;5068774;28;20063;-61
2023/08/03 10:03:30;;;;;;;7.85;1.08;;;;;;;;;;5072949;28;20041;-60
2023/08/03 10:05:59;;;;;;;5.75;0.95;;;;;;;;;;5078926;28;20040;-60
2023/08/03 10:08:25;;;;;;;4.32;0.98;;;;;;;;;;5075445;28;20106;-60
2023/08/03 10:10:56;;;;;;;8.05;1.75;;;;;;;;;;5060022;28;20032;-60
2023/08/03 10:13:23;;;;;;;5.05;1.23;;;;;;;;;;5079582;28;20522;-60
2023/08/03 10:15:50;;;;;;;6.22;0.95;;;;;;;;;;5066512;28;20037;-60
2023/08/03 10:18:17;;;;;;;7.93;1.80;;;;;;;;;;5071939;28;20115;-60
2023/08/03 10:20:43;;;;;;;11.35;1.40;;;;;;;;;;5076471;28;20051;-69
2023/08/03 10:23:11;;;;;;;8.80;1.33;;;;;;;;;;5054181;28;20044;-61
2023/08/03 10:25:57;;;;;;;8.75;1.42;;;;;;;;;;5073551;28;20111;-60
2023/08/03 10:28:39;;;;;;;3.88;1.10;;;;;;;;;;5068401;28;20837;-60
2023/08/03 10:31:14;;;;;;;5.03;0.90;;;;;;;;;;5055879;28;20067;-60
2023/08/03 10:33:49;;;;;;;7.30;1.27;;;;;;;;;;5066461;28;20052;-61
2023/08/03 10:36:43;;;;;;;7.68;1.38;;;;;;;;;;5062321;28;20063;-61
2023/08/03 10:39:15;;;;;;;9.57;1.98;;;;;;;;;;5054870;28;20144;-61
2023/08/03 10:41:42;;;;;;;8.93;2.13;;;;;;;;;;5071364;28;20072;-61
2023/08/03 10:44:09;;;;;;;7.43;1.40;;;;;;;;;;5069175;28;20044;-60
2023/08/03 10:46:41;;;;;;;7.18;1.27;;;;;;;;;;5062553;28;20064;-61
2023/08/03 10:49:27;;;;;;;4.85;1.20;;;;;;;;;;5073233;28;20060;-61
2023/08/03 10:52:14;;;;;;;5.50;1.20;;;;;;;;;;5073002;28;20084;-61
2023/08/03 10:54:41;;;;;;;6.40;1.25;;;;;;;;;;5061421;28;20097;-61
2023/08/03 10:57:09;;;;;;;6.72;1.45;;;;;;;;;;5070415;28;20076;-60
2023/08/03 10:59:39;;;;;;;6.88;1.52;;;;;;;;;;5068554;28;20044;-61
2023/08/03 11:02:09;;;;;;;3.80;1.10;;;;;;;;;;5065085;28;20041;-61
2023/08/03 11:04:36;;;;;;;7.43;1.50;;;;;;;;;;5060327;28;20049;-61
2023/08/03 11:07:03;;;;;;;5.35;1.17;;;;;;;;;;5062764;28;20088;-61
2023/08/03 11:09:30;;;;;;;4.68;1.08;;;;;;;;;;5072110;28;20040;-60
2023/08/03 11:11:57;;;;;;;6.93;1.50;;;;;;;;;;5074601;28;20342;-60
2023/08/03 11:14:24;;;;;;;6.40;1.40;;;;;;;;;;5060000;28;20646;-61
2023/08/03 11:16:50;;;;;;;8.20;1.35;;;;;;;;;;5071881;28;20060;-60
2023/08/03 11:19:16;;;;;;;5.90;1.30;;;;;;;;;;5064159;28;20101;-60
2023/08/03 11:21:42;;;;;;;6.00;1.52;;;;;;;;;;5066976;28;20037;-60
2023/08/03 11:24:10;;;;;;;9.27;1.90;;;;;;;;;;5072405;28;20072;-60
2023/08/03 11:26:37;;;;;;;10.95;1.63;;;;;;;;;;5071808;28;20102;-61
2023/08/03 11:29:06;;;;;;;9.40;1.85;;;;;;;;;;5077250;28;20042;-60
2023/08/03 11:31:32;;;;;;;13.82;2.00;;;;;;;;;;5070127;28;20155;-60
2023/08/03 11:33:59;;;;;;;8.93;1.90;;;;;;;;;;5058441;28;20089;-60
2023/08/03 11:36:25;;;;;;;9.40;1.73;;;;;;;;;;5074517;28;20090;-61
2023/08/03 11:38:52;;;;;;;11.20;1.77;;;;;;;;;;5059751;28;20048;-60
2023/08/03 11:41:20;;;;;;;9.52;2.13;;;;;;;;;;5052807;28;20048;-60
2023/08/03 11:43:47;;;;;;;11.63;2.70;;;;;;;;;;5061419;28;20129;-61
2023/08/03 11:46:13;;;;;;;12.05;2.45;;;;;;;;;;5071120;28;20157;-60
2023/08/03 11:48:44;;;;;;;8.25;1.92;;;;;;;;;;5071606;28;20047;-60
2023/08/03 11:51:11;;;;;;;6.93;2.00;;;;;;;;;;5075362;28;20145;-60
2023/08/03 11:53:38;;;;;;;4.20;1.40;;;;;;;;;;5072252;28;20106;-61
2023/08/03 11:56:05;;;;;;;6.30;1.50;;;;;;;;;;5071071;28;20222;-60
2023/08/03 11:58:31;;;;;;;10.07;2.53;;;;;;;;;;5063078;28;20043;-60
2023/08/03 12:00:59;;;;;;;8.68;1.58;;;;;;;;;;5071036;28;20036;-61
2023/08/03 12:03:35;;;;;;;7.88;2.20;;;;;;;;;;5072013;28;20468;-61
2023/08/03 12:06:13;;;;;;;9.10;2.20;;;;;;;;;;5067054;28;20036;-60
2023/08/03 12:08:46;;;;;;;10.05;2.08;;;;;;;;;;5069897;28;20047;-60
2023/08/03 12:11:15;;;;;;;9.73;2.50;;;;;;;;;;5071090;28;20142;-60
2023/08/03 12:13:43;;;;;;;9.73;2.65;;;;;;;;;;5067398;28;20036;-60
2023/08/03 12:16:09;;;;;;;8.90;2.85;;;;;;;;;;5071044;28;20047;-60
2023/08/03 12:18:36;;;;;;;13.43;3.42;;;;;;;;;;5065900;28;20082;-61
2023/08/03 12:21:02;;;;;;;9.90;2.78;;;;;;;;;;5067037;28;20045;-60
2023/08/03 12:23:29;;;;;;;13.68;3.92;;;;;;;;;;5069221;28;20036;-60
2023/08/03 12:25:55;;;;;;;16.38;3.45;;;;;;;;;;5069907;28;20043;-60
2023/08/03 12:28:22;;;;;;;16.45;3.45;;;;;;;;;;5067779;28;20036;-60
2023/08/03 12:30:48;;;;;;;15.30;4.55;;;;;;;;;;5071009;28;20523;-60
2023/08/03 12:33:14;;;;;;;18.55;3.88;;;;;;;;;;5065519;28;20043;-60
2023/08/03 12:35:40;;;;;;;9.98;3.05;;;;;;;;;;5063195;28;20508;-60
2023/08/03 12:38:06;;;;;;;12.52;3.38;;;;;;;;;;5062054;28;20098;-66
2023/08/03 12:40:33;;;;;;;15.70;3.65;;;;;;;;;;5068581;28;20501;-60
2023/08/03 12:42:59;;;;;;;13.90;3.33;;;;;;;;;;5062546;28;20106;-60
2023/08/03 12:45:25;;;;;;;14.45;3.53;;;;;;;;;;5070721;28;20044;-59
2023/08/03 12:47:54;;;;;;;14.07;3.83;;;;;;;;;;5070647;28;20056;-59
2023/08/03 12:50:21;;;;;;;17.05;4.18;;;;;;;;;;5061169;28;20048;-60
2023/08/03 12:52:47;;;;;;;17.90;3.95;;;;;;;;;;5059100;28;20484;-60
2023/08/03 12:55:13;;;;;;;20.73;4.75;;;;;;;;;;5070539;28;20430;-60
2023/08/03 12:57:39;;;;;;;15.70;3.95;;;;;;;;;;5070119;28;20500;-59
2023/08/03 13:00:06;;;;;;;17.80;4.07;;;;;;;;;;5067754;28;20040;-60
2023/08/03 13:02:33;;;;;;;17.10;4.13;;;;;;;;;;5068536;28;20036;-60
2023/08/03 13:04:59;;;;;;;16.95;4.05;;;;;;;;;;5063487;28;20049;-59
2023/08/03 13:07:25;;;;;;;11.48;2.88;;;;;;;;;;5069773;28;20040;-60
2023/08/03 13:09:51;;;;;;;20.23;4.57;;;;;;;;;;5064529;28;20085;-60
2023/08/03 13:12:18;;;;;;;20.45;4.65;;;;;;;;;;5055218;28;20090;-60
2023/08/03 13:14:44;;;;;;;17.23;3.70;;;;;;;;;;5070402;28;20045;-59
2023/08/03 13:17:10;;;;;;;20.17;3.83;;;;;;;;;;5069740;28;20072;-60
2023/08/03 13:19:38;;;;;;;11.88;3.15;;;;;;;;;;5068783;28;20071;-60
2023/08/03 13:22:04;;;;;;;19.00;4.75;;;;;;;;;;5069374;28;20076;-59
2023/08/03 13:24:30;;;;;;;16.05;3.72;;;;;;;;;;5069933;28;20044;-60
2023/08/03 13:27:15;;;;;;;17.15;4.28;;;;;;;;;;5068843;28;20041;-59
2023/08/03 13:29:46;;;;;;;18.33;3.72;;;;;;;;;;5071323;28;20521;-60
2023/08/03 13:32:12;;;;;;;17.52;4.35;;;;;;;;;;5072960;28;20055;-60
2023/08/03 13:34:38;;;;;;;14.80;3.70;;;;;;;;;;5070163;28;20084;-60
2023/08/03 13:37:05;;;;;;;10.95;3.40;;;;;;;;;;5070540;28;20154;-60
2023/08/03 13:39:31;;;;;;;16.98;4.07;;;;;;;;;;5057186;28;20083;-60
2023/08/03 13:41:57;;;;;;;12.30;3.00;;;;;;;;;;5056826;28;20033;-60
2023/08/03 13:44:24;;;;;;;14.00;3.45;;;;;;;;;;5057261;28;20064;-60
2023/08/03 13:46:50;;;;;;;18.13;3.80;;;;;;;;;;5069252;28;20048;-60
2023/08/03 13:49:18;;;;;;;9.20;2.85;;;;;;;;;;5070160;28;20504;-60
2023/08/03 13:51:45;;;;;;;10.27;3.05;;;;;;;;;;5055162;28;20036;-59
2023/08/03 13:54:11;;;;;;;14.07;3.78;;;;;;;;;;5059392;28;20060;-59
2023/08/03 13:56:37;;;;;;;15.98;3.50;;;;;;;;;;5062596;28;20090;-59
2023/08/03 13:59:04;;;;;;;11.98;2.80;;;;;;;;;;5059090;28;20052;-60
2023/08/03 14:01:36;;;;;;;9.07;3.05;;;;;;;;;;5050154;28;20362;-60
2023/08/03 14:04:03;;;;;;;11.73;2.95;;;;;;;;;;5053268;28;20944;-60
2023/08/03 14:06:29;;;;;;;10.07;2.95;;;;;;;;;;5059131;28;20033;-60
2023/08/03 14:08:55;;;;;;;15.35;4.10;;;;;;;;;;5049772;28;20064;-60
2023/08/03 14:11:21;;;;;;;11.25;2.97;;;;;;;;;;5049949;28;20081;-60
2023/08/03 14:13:48;;;;;;;13.43;3.50;;;;;;;;;;5048871;28;20174;-60
2023/08/03 14:16:17;;;;;;;13.68;3.38;;;;;;;;;;5063781;28;20044;-60
2023/08/03 14:18:43;;;;;;;13.63;3.42;;;;;;;;;;5052922;28;20405;-60
2023/08/03 14:21:09;;;;;;;15.60;2.97;;;;;;;;;;5051700;28;20043;-60
2023/08/03 14:23:36;;;;;;;20.23;3.38;;;;;;;;;;5062351;28;20130;-60
2023/08/03 14:26:02;;;;;;;14.63;3.17;;;;;;;;;;5055802;28;20135;-60
2023/08/03 14:28:28;;;;;;;14.90;3.72;;;;;;;;;;5063653;28;20060;-60
2023/08/03 14:30:54;;;;;;;17.83;3.42;;;;;;;;;;5059196;28;20037;-59
2023/08/03 14:33:21;;;;;;;15.02;3.70;;;;;;;;;;5064374;28;20045;-60
2023/08/03 14:35:47;;;;;;;24.33;3.50;;;;;;;;;;5071783;28;20840;-59